sensor_id;sensor_type;location;lat;lon;timestamp;temperature;humidity
3416;DHT22;1721;51.238;9.562;2024-01-16T00:01:20;3.00;84.30
3416;DHT22;1721;51.238;9.562;2024-01-16T00:03:46;2.80;85.00
3416;DHT22;1721;51.238;9.562;2024-01-16T00:06:11;2.90;85.70
3416;DHT22;1721;51.238;9.562;2024-01-16T00:08:37;2.90;85.40
3416;DHT22;1721;51.238;9.562;2024-01-16T00:11:03;3.10;85.90
3416;DHT22;1721;51.238;9.562;2024-01-16T00:13:29;3.10;84.70
3416;DHT22;1721;51.238;9.562;2024-01-16T00:15:54;3.00;85.60
3416;DHT22;1721;51.238;9.562;2024-01-16T00:18:22;3.10;85.20
3416;DHT22;1721;51.238;9.562;2024-01-16T00:20:47;3.00;85.60
3416;DHT22;1721;51.238;9.562;2024-01-16T00:23:13;3.10;85.80
3416;DHT22;1721;51.238;9.562;2024-01-16T00:25:38;3.00;85.90
3416;DHT22;1721;51.238;9.562;2024-01-16T00:28:04;3.00;86.60
3416;DHT22;1721;51.238;9.562;2024-01-16T00:30:30;3.20;86.30
3416;DHT22;1721;51.238;9.562;2024-01-16T00:32:55;3.00;85.60
3416;DHT22;1721;51.238;9.562;2024-01-16T00:35:21;3.00;86.70
3416;DHT22;1721;51.238;9.562;2024-01-16T00:37:46;3.20;86.90
3416;DHT22;1721;51.238;9.562;2024-01-16T00:40:12;3.30;87.00
3416;DHT22;1721;51.238;9.562;2024-01-16T00:42:38;3.50;86.70
3416;DHT22;1721;51.238;9.562;2024-01-16T00:45:04;3.60;86.70
3416;DHT22;1721;51.238;9.562;2024-01-16T00:47:30;3.70;86.50
3416;DHT22;1721;51.238;9.562;2024-01-16T00:49:55;3.80;86.20
3416;DHT22;1721;51.238;9.562;2024-01-16T00:52:21;3.70;86.80
3416;DHT22;1721;51.238;9.562;2024-01-16T00:54:47;3.80;86.80
3416;DHT22;1721;51.238;9.562;2024-01-16T00:57:13;3.70;87.10
3416;DHT22;1721;51.238;9.562;2024-01-16T00:59:40;3.70;87.20
3416;DHT22;1721;51.238;9.562;2024-01-16T01:02:06;3.60;87.20
3416;DHT22;1721;51.238;9.562;2024-01-16T01:04:33;3.60;87.50
3416;DHT22;1721;51.238;9.562;2024-01-16T01:06:58;3.50;87.80
3416;DHT22;1721;51.238;9.562;2024-01-16T01:09:24;3.40;88.20
3416;DHT22;1721;51.238;9.562;2024-01-16T01:11:49;3.40;88.90
3416;DHT22;1721;51.238;9.562;2024-01-16T01:14:15;3.50;89.20
3416;DHT22;1721;51.238;9.562;2024-01-16T01:16:40;3.50;88.80
3416;DHT22;1721;51.238;9.562;2024-01-16T01:19:06;3.40;89.30
3416;DHT22;1721;51.238;9.562;2024-01-16T01:21:32;3.50;89.60
3416;DHT22;1721;51.238;9.562;2024-01-16T01:23:57;3.50;89.90
3416;DHT22;1721;51.238;9.562;2024-01-16T01:26:23;3.40;90.00
3416;DHT22;1721;51.238;9.562;2024-01-16T01:28:49;3.40;90.10
3416;DHT22;1721;51.238;9.562;2024-01-16T01:31:14;3.40;89.90
3416;DHT22;1721;51.238;9.562;2024-01-16T01:33:40;3.50;90.00
3416;DHT22;1721;51.238;9.562;2024-01-16T01:36:06;3.50;90.00
3416;DHT22;1721;51.238;9.562;2024-01-16T01:38:31;3.50;89.80
3416;DHT22;1721;51.238;9.562;2024-01-16T01:40:57;3.40;90.00
3416;DHT22;1721;51.238;9.562;2024-01-16T01:43:24;3.40;89.80
3416;DHT22;1721;51.238;9.562;2024-01-16T01:46:19;3.40;90.00
3416;DHT22;1721;51.238;9.562;2024-01-16T01:48:46;3.40;90.10
3416;DHT22;1721;51.238;9.562;2024-01-16T01:51:14;3.40;90.00
3416;DHT22;1721;51.238;9.562;2024-01-16T01:53:42;3.40;90.00
3416;DHT22;1721;51.238;9.562;2024-01-16T01:56:10;3.40;89.80
3416;DHT22;1721;51.238;9.562;2024-01-16T01:58:37;3.30;89.80
3416;DHT22;1721;51.238;9.562;2024-01-16T02:01:03;3.40;90.00
3416;DHT22;1721;51.238;9.562;2024-01-16T02:03:35;3.50;89.80
3416;DHT22;1721;51.238;9.562;2024-01-16T02:06:00;3.30;88.80
3416;DHT22;1721;51.238;9.562;2024-01-16T02:08:26;3.20;89.00
3416;DHT22;1721;51.238;9.562;2024-01-16T02:10:52;3.20;88.60
3416;DHT22;1721;51.238;9.562;2024-01-16T02:13:19;3.20;88.20
3416;DHT22;1721;51.238;9.562;2024-01-16T02:15:49;3.30;88.10
3416;DHT22;1721;51.238;9.562;2024-01-16T02:18:14;3.20;87.30
3416;DHT22;1721;51.238;9.562;2024-01-16T02:20:40;3.30;86.90
3416;DHT22;1721;51.238;9.562;2024-01-16T02:23:07;3.30;86.40
3416;DHT22;1721;51.238;9.562;2024-01-16T02:25:35;3.10;86.40
3416;DHT22;1721;51.238;9.562;2024-01-16T02:28:01;3.10;86.00
3416;DHT22;1721;51.238;9.562;2024-01-16T02:30:27;2.90;86.10
3416;DHT22;1721;51.238;9.562;2024-01-16T02:32:52;3.00;86.50
3416;DHT22;1721;51.238;9.562;2024-01-16T02:35:18;3.00;86.00
3416;DHT22;1721;51.238;9.562;2024-01-16T02:37:44;3.10;86.30
3416;DHT22;1721;51.238;9.562;2024-01-16T02:40:10;3.20;85.90
3416;DHT22;1721;51.238;9.562;2024-01-16T02:42:36;3.30;85.90
3416;DHT22;1721;51.238;9.562;2024-01-16T02:45:04;3.30;85.90
3416;DHT22;1721;51.238;9.562;2024-01-16T02:47:29;3.20;85.30
3416;DHT22;1721;51.238;9.562;2024-01-16T02:49:55;3.20;85.00
3416;DHT22;1721;51.238;9.562;2024-01-16T02:52:21;3.20;84.60
3416;DHT22;1721;51.238;9.562;2024-01-16T02:54:46;3.20;84.80
3416;DHT22;1721;51.238;9.562;2024-01-16T02:57:12;3.30;85.10
3416;DHT22;1721;51.238;9.562;2024-01-16T02:59:37;3.50;84.90
3416;DHT22;1721;51.238;9.562;2024-01-16T03:02:03;3.50;84.40
3416;DHT22;1721;51.238;9.562;2024-01-16T03:04:29;3.60;84.50
3416;DHT22;1721;51.238;9.562;2024-01-16T03:06:55;3.70;84.40
3416;DHT22;1721;51.238;9.562;2024-01-16T03:09:20;3.70;84.10
3416;DHT22;1721;51.238;9.562;2024-01-16T03:11:46;3.70;83.80
3416;DHT22;1721;51.238;9.562;2024-01-16T03:14:12;3.80;83.80
3416;DHT22;1721;51.238;9.562;2024-01-16T03:16:39;3.70;83.10
3416;DHT22;1721;51.238;9.562;2024-01-16T03:19:05;3.70;82.90
3416;DHT22;1721;51.238;9.562;2024-01-16T03:21:30;3.70;83.10
3416;DHT22;1721;51.238;9.562;2024-01-16T03:23:56;3.60;82.80
3416;DHT22;1721;51.238;9.562;2024-01-16T03:26:21;3.60;83.70
3416;DHT22;1721;51.238;9.562;2024-01-16T03:28:47;3.60;83.80
3416;DHT22;1721;51.238;9.562;2024-01-16T03:31:13;3.60;83.50
3416;DHT22;1721;51.238;9.562;2024-01-16T03:33:41;3.60;83.70
3416;DHT22;1721;51.238;9.562;2024-01-16T03:36:09;3.50;83.90
3416;DHT22;1721;51.238;9.562;2024-01-16T03:38:35;3.50;83.90
3416;DHT22;1721;51.238;9.562;2024-01-16T03:41:02;3.40;84.10
3416;DHT22;1721;51.238;9.562;2024-01-16T03:43:29;3.50;84.30
3416;DHT22;1721;51.238;9.562;2024-01-16T03:45:57;3.50;84.80
3416;DHT22;1721;51.238;9.562;2024-01-16T03:48:23;3.50;84.30
3416;DHT22;1721;51.238;9.562;2024-01-16T03:50:48;3.40;84.50
3416;DHT22;1721;51.238;9.562;2024-01-16T03:53:14;3.50;84.80
3416;DHT22;1721;51.238;9.562;2024-01-16T03:55:40;3.50;84.70
3416;DHT22;1721;51.238;9.562;2024-01-16T03:58:05;3.40;84.50
3416;DHT22;1721;51.238;9.562;2024-01-16T04:00:31;3.30;84.90
3416;DHT22;1721;51.238;9.562;2024-01-16T04:02:57;3.40;85.20
3416;DHT22;1721;51.238;9.562;2024-01-16T04:05:23;3.30;85.10
3416;DHT22;1721;51.238;9.562;2024-01-16T04:07:48;3.30;84.90
3416;DHT22;1721;51.238;9.562;2024-01-16T04:10:14;3.30;85.00
3416;DHT22;1721;51.238;9.562;2024-01-16T04:12:39;3.20;84.80
3416;DHT22;1721;51.238;9.562;2024-01-16T04:15:05;3.20;84.80
3416;DHT22;1721;51.238;9.562;2024-01-16T04:17:31;3.10;84.50
3416;DHT22;1721;51.238;9.562;2024-01-16T04:19:57;3.10;84.60
3416;DHT22;1721;51.238;9.562;2024-01-16T04:22:22;3.10;84.80
3416;DHT22;1721;51.238;9.562;2024-01-16T04:24:48;3.00;85.20
3416;DHT22;1721;51.238;9.562;2024-01-16T04:27:13;3.00;85.60
3416;DHT22;1721;51.238;9.562;2024-01-16T04:29:39;3.00;85.60
3416;DHT22;1721;51.238;9.562;2024-01-16T04:32:04;3.00;86.00
3416;DHT22;1721;51.238;9.562;2024-01-16T04:34:30;3.00;85.80
3416;DHT22;1721;51.238;9.562;2024-01-16T04:36:56;3.00;85.80
3416;DHT22;1721;51.238;9.562;2024-01-16T04:39:21;2.80;86.40
3416;DHT22;1721;51.238;9.562;2024-01-16T04:41:50;2.90;86.90
3416;DHT22;1721;51.238;9.562;2024-01-16T04:44:15;2.80;86.60
3416;DHT22;1721;51.238;9.562;2024-01-16T04:46:41;2.80;86.30
3416;DHT22;1721;51.238;9.562;2024-01-16T04:49:06;2.70;87.50
3416;DHT22;1721;51.238;9.562;2024-01-16T04:51:32;2.90;87.80
3416;DHT22;1721;51.238;9.562;2024-01-16T04:53:57;2.90;87.20
3416;DHT22;1721;51.238;9.562;2024-01-16T04:56:23;2.70;86.90
3416;DHT22;1721;51.238;9.562;2024-01-16T04:58:48;2.80;87.70
3416;DHT22;1721;51.238;9.562;2024-01-16T05:01:14;2.90;87.60
3416;DHT22;1721;51.238;9.562;2024-01-16T05:03:40;2.90;86.70
3416;DHT22;1721;51.238;9.562;2024-01-16T05:06:12;2.70;87.20
3416;DHT22;1721;51.238;9.562;2024-01-16T05:08:39;2.80;86.90
3416;DHT22;1721;51.238;9.562;2024-01-16T05:11:04;2.70;86.80
3416;DHT22;1721;51.238;9.562;2024-01-16T05:13:30;2.70;87.50
3416;DHT22;1721;51.238;9.562;2024-01-16T05:15:55;2.80;87.30
3416;DHT22;1721;51.238;9.562;2024-01-16T05:18:21;2.70;87.30
3416;DHT22;1721;51.238;9.562;2024-01-16T05:20:46;2.70;87.00
3416;DHT22;1721;51.238;9.562;2024-01-16T05:23:12;2.70;88.10
3416;DHT22;1721;51.238;9.562;2024-01-16T05:25:38;2.80;87.60
3416;DHT22;1721;51.238;9.562;2024-01-16T05:28:03;2.80;87.30
3416;DHT22;1721;51.238;9.562;2024-01-16T05:30:29;2.90;87.20
3416;DHT22;1721;51.238;9.562;2024-01-16T05:32:55;2.80;86.90
3416;DHT22;1721;51.238;9.562;2024-01-16T05:35:20;2.90;87.30
3416;DHT22;1721;51.238;9.562;2024-01-16T05:37:46;2.90;87.10
3416;DHT22;1721;51.238;9.562;2024-01-16T05:40:12;2.90;87.40
3416;DHT22;1721;51.238;9.562;2024-01-16T05:42:38;2.90;87.60
3416;DHT22;1721;51.238;9.562;2024-01-16T05:45:04;2.90;87.50
3416;DHT22;1721;51.238;9.562;2024-01-16T05:47:30;2.90;87.90
3416;DHT22;1721;51.238;9.562;2024-01-16T05:49:56;3.00;87.90
3416;DHT22;1721;51.238;9.562;2024-01-16T05:52:22;2.90;87.40
3416;DHT22;1721;51.238;9.562;2024-01-16T05:54:47;2.80;88.20
3416;DHT22;1721;51.238;9.562;2024-01-16T05:57:13;2.80;88.60
3416;DHT22;1721;51.238;9.562;2024-01-16T05:59:39;2.80;88.00
3416;DHT22;1721;51.238;9.562;2024-01-16T06:02:05;2.70;88.00
3416;DHT22;1721;51.238;9.562;2024-01-16T06:04:30;2.60;88.60
3416;DHT22;1721;51.238;9.562;2024-01-16T06:06:56;2.80;88.60
3416;DHT22;1721;51.238;9.562;2024-01-16T06:09:22;2.80;88.10
3416;DHT22;1721;51.238;9.562;2024-01-16T06:11:47;2.90;87.60
3416;DHT22;1721;51.238;9.562;2024-01-16T06:14:13;2.90;87.60
3416;DHT22;1721;51.238;9.562;2024-01-16T06:16:40;2.90;87.70
3416;DHT22;1721;51.238;9.562;2024-01-16T06:19:06;3.00;87.40
3416;DHT22;1721;51.238;9.562;2024-01-16T06:21:33;3.00;87.10
3416;DHT22;1721;51.238;9.562;2024-01-16T06:23:58;3.00;87.20
3416;DHT22;1721;51.238;9.562;2024-01-16T06:26:24;2.90;86.60
3416;DHT22;1721;51.238;9.562;2024-01-16T06:28:50;2.80;87.30
3416;DHT22;1721;51.238;9.562;2024-01-16T06:31:16;2.90;86.80
3416;DHT22;1721;51.238;9.562;2024-01-16T06:33:41;2.70;88.40
3416;DHT22;1721;51.238;9.562;2024-01-16T06:36:07;2.70;88.10
3416;DHT22;1721;51.238;9.562;2024-01-16T06:38:33;2.70;87.50
3416;DHT22;1721;51.238;9.562;2024-01-16T06:40:58;2.80;87.60
3416;DHT22;1721;51.238;9.562;2024-01-16T06:43:24;2.70;86.90
3416;DHT22;1721;51.238;9.562;2024-01-16T06:45:50;2.70;87.50
3416;DHT22;1721;51.238;9.562;2024-01-16T06:48:15;2.60;87.00
3416;DHT22;1721;51.238;9.562;2024-01-16T06:50:41;2.50;87.80
3416;DHT22;1721;51.238;9.562;2024-01-16T06:53:07;2.50;87.70
3416;DHT22;1721;51.238;9.562;2024-01-16T06:55:32;2.70;87.90
3416;DHT22;1721;51.238;9.562;2024-01-16T06:57:58;2.70;86.80
3416;DHT22;1721;51.238;9.562;2024-01-16T07:00:24;2.60;86.90
3416;DHT22;1721;51.238;9.562;2024-01-16T07:02:52;2.60;87.10
3416;DHT22;1721;51.238;9.562;2024-01-16T07:05:17;2.70;87.30
3416;DHT22;1721;51.238;9.562;2024-01-16T07:07:43;2.70;87.00
3416;DHT22;1721;51.238;9.562;2024-01-16T07:10:08;2.80;87.20
3416;DHT22;1721;51.238;9.562;2024-01-16T07:12:39;2.80;86.40
3416;DHT22;1721;51.238;9.562;2024-01-16T07:15:05;2.80;86.60
3416;DHT22;1721;51.238;9.562;2024-01-16T07:17:31;2.70;86.50
3416;DHT22;1721;51.238;9.562;2024-01-16T07:19:57;2.80;86.60
3416;DHT22;1721;51.238;9.562;2024-01-16T07:22:23;2.70;86.10
3416;DHT22;1721;51.238;9.562;2024-01-16T07:24:49;2.60;85.90
3416;DHT22;1721;51.238;9.562;2024-01-16T07:27:15;2.60;86.50
3416;DHT22;1721;51.238;9.562;2024-01-16T07:29:40;2.50;86.80
3416;DHT22;1721;51.238;9.562;2024-01-16T07:32:07;2.60;87.30
3416;DHT22;1721;51.238;9.562;2024-01-16T07:34:32;2.60;86.90
3416;DHT22;1721;51.238;9.562;2024-01-16T07:36:58;2.60;86.40
3416;DHT22;1721;51.238;9.562;2024-01-16T07:39:24;2.60;86.30
3416;DHT22;1721;51.238;9.562;2024-01-16T07:41:49;2.50;86.20
3416;DHT22;1721;51.238;9.562;2024-01-16T07:44:15;2.40;86.50
3416;DHT22;1721;51.238;9.562;2024-01-16T07:46:40;2.40;86.60
3416;DHT22;1721;51.238;9.562;2024-01-16T07:49:06;2.30;86.10
3416;DHT22;1721;51.238;9.562;2024-01-16T07:51:31;2.20;87.10
3416;DHT22;1721;51.238;9.562;2024-01-16T07:54:07;2.30;87.90
3416;DHT22;1721;51.238;9.562;2024-01-16T07:56:34;2.40;87.00
3416;DHT22;1721;51.238;9.562;2024-01-16T07:58:59;2.30;87.00
3416;DHT22;1721;51.238;9.562;2024-01-16T08:01:25;2.30;87.20
3416;DHT22;1721;51.238;9.562;2024-01-16T08:03:50;2.30;87.80
3416;DHT22;1721;51.238;9.562;2024-01-16T08:06:16;2.30;87.70
3416;DHT22;1721;51.238;9.562;2024-01-16T08:08:42;2.20;88.10
3416;DHT22;1721;51.238;9.562;2024-01-16T08:11:07;2.10;88.20
3416;DHT22;1721;51.238;9.562;2024-01-16T08:13:33;2.10;88.50
3416;DHT22;1721;51.238;9.562;2024-01-16T08:15:59;2.10;89.20
3416;DHT22;1721;51.238;9.562;2024-01-16T08:18:24;2.30;89.40
3416;DHT22;1721;51.238;9.562;2024-01-16T08:20:50;2.40;88.40
3416;DHT22;1721;51.238;9.562;2024-01-16T08:23:16;2.50;88.60
3416;DHT22;1721;51.238;9.562;2024-01-16T08:25:41;2.50;88.80
3416;DHT22;1721;51.238;9.562;2024-01-16T08:28:07;2.40;89.20
3416;DHT22;1721;51.238;9.562;2024-01-16T08:30:32;2.50;89.40
3416;DHT22;1721;51.238;9.562;2024-01-16T08:32:58;2.50;89.30
3416;DHT22;1721;51.238;9.562;2024-01-16T08:35:23;2.70;89.10
3416;DHT22;1721;51.238;9.562;2024-01-16T08:37:49;2.90;89.10
3416;DHT22;1721;51.238;9.562;2024-01-16T08:40:15;3.10;89.00
3416;DHT22;1721;51.238;9.562;2024-01-16T08:42:41;3.10;88.10
3416;DHT22;1721;51.238;9.562;2024-01-16T08:45:06;3.00;87.40
3416;DHT22;1721;51.238;9.562;2024-01-16T08:47:32;2.90;88.60
3416;DHT22;1721;51.238;9.562;2024-01-16T08:49:58;2.90;89.10
3416;DHT22;1721;51.238;9.562;2024-01-16T08:52:23;3.00;88.60
3416;DHT22;1721;51.238;9.562;2024-01-16T08:54:49;3.00;88.60
3416;DHT22;1721;51.238;9.562;2024-01-16T08:57:15;3.10;88.60
3416;DHT22;1721;51.238;9.562;2024-01-16T08:59:41;3.10;89.10
3416;DHT22;1721;51.238;9.562;2024-01-16T09:02:07;3.30;88.80
3416;DHT22;1721;51.238;9.562;2024-01-16T09:04:32;3.40;88.00
3416;DHT22;1721;51.238;9.562;2024-01-16T09:06:59;3.40;87.80
3416;DHT22;1721;51.238;9.562;2024-01-16T09:09:25;3.50;88.20
3416;DHT22;1721;51.238;9.562;2024-01-16T09:11:50;3.60;87.20
3416;DHT22;1721;51.238;9.562;2024-01-16T09:14:16;3.50;87.10
3416;DHT22;1721;51.238;9.562;2024-01-16T09:16:41;3.50;88.00
3416;DHT22;1721;51.238;9.562;2024-01-16T09:19:07;3.60;88.00
3416;DHT22;1721;51.238;9.562;2024-01-16T09:21:34;3.60;87.30
3416;DHT22;1721;51.238;9.562;2024-01-16T09:24:00;3.50;87.10
3416;DHT22;1721;51.238;9.562;2024-01-16T09:26:26;3.40;87.70
3416;DHT22;1721;51.238;9.562;2024-01-16T09:28:51;3.40;88.60
3416;DHT22;1721;51.238;9.562;2024-01-16T09:31:17;3.50;88.50
3416;DHT22;1721;51.238;9.562;2024-01-16T09:33:43;3.50;87.40
3416;DHT22;1721;51.238;9.562;2024-01-16T09:36:09;3.50;88.20
3416;DHT22;1721;51.238;9.562;2024-01-16T09:38:34;3.60;88.40
3416;DHT22;1721;51.238;9.562;2024-01-16T09:41:00;3.90;88.10
3416;DHT22;1721;51.238;9.562;2024-01-16T09:43:29;4.00;86.80
3416;DHT22;1721;51.238;9.562;2024-01-16T09:46:00;4.00;86.10
3416;DHT22;1721;51.238;9.562;2024-01-16T09:48:28;3.90;86.60
3416;DHT22;1721;51.238;9.562;2024-01-16T09:50:55;3.80;87.10
3416;DHT22;1721;51.238;9.562;2024-01-16T09:53:20;3.70;86.50
3416;DHT22;1721;51.238;9.562;2024-01-16T09:55:48;3.70;87.40
3416;DHT22;1721;51.238;9.562;2024-01-16T09:58:15;3.70;86.60
3416;DHT22;1721;51.238;9.562;2024-01-16T10:00:43;3.70;87.10
3416;DHT22;1721;51.238;9.562;2024-01-16T10:03:11;3.70;87.40
3416;DHT22;1721;51.238;9.562;2024-01-16T10:05:42;3.80;86.70
3416;DHT22;1721;51.238;9.562;2024-01-16T10:08:08;3.70;87.10
3416;DHT22;1721;51.238;9.562;2024-01-16T10:10:34;3.80;86.70
3416;DHT22;1721;51.238;9.562;2024-01-16T10:13:00;3.80;87.30
3416;DHT22;1721;51.238;9.562;2024-01-16T10:15:25;4.00;87.10
3416;DHT22;1721;51.238;9.562;2024-01-16T10:17:51;4.10;86.90
3416;DHT22;1721;51.238;9.562;2024-01-16T10:20:34;4.20;86.00
3416;DHT22;1721;51.238;9.562;2024-01-16T10:23:00;4.40;86.20
3416;DHT22;1721;51.238;9.562;2024-01-16T10:25:28;4.50;84.80
3416;DHT22;1721;51.238;9.562;2024-01-16T10:28:04;4.70;85.00
3416;DHT22;1721;51.238;9.562;2024-01-16T10:30:32;4.80;84.30
3416;DHT22;1721;51.238;9.562;2024-01-16T10:33:12;5.00;84.00
3416;DHT22;1721;51.238;9.562;2024-01-16T10:35:39;5.10;83.60
3416;DHT22;1721;51.238;9.562;2024-01-16T10:38:04;5.10;82.50
3416;DHT22;1721;51.238;9.562;2024-01-16T10:40:30;5.10;83.00
3416;DHT22;1721;51.238;9.562;2024-01-16T10:43:02;5.10;83.00
3416;DHT22;1721;51.238;9.562;2024-01-16T10:45:29;5.30;83.50
3416;DHT22;1721;51.238;9.562;2024-01-16T10:48:01;5.40;82.30
3416;DHT22;1721;51.238;9.562;2024-01-16T10:50:28;5.50;82.60
3416;DHT22;1721;51.238;9.562;2024-01-16T10:52:54;5.50;82.00
3416;DHT22;1721;51.238;9.562;2024-01-16T10:55:22;5.70;82.10
3416;DHT22;1721;51.238;9.562;2024-01-16T10:57:49;5.60;80.90
3416;DHT22;1721;51.238;9.562;2024-01-16T11:00:18;5.60;81.30
3416;DHT22;1721;51.238;9.562;2024-01-16T11:02:50;5.50;80.50
3416;DHT22;1721;51.238;9.562;2024-01-16T11:05:17;5.50;80.20
3416;DHT22;1721;51.238;9.562;2024-01-16T11:07:43;5.60;80.60
3416;DHT22;1721;51.238;9.562;2024-01-16T11:10:12;5.60;80.30
3416;DHT22;1721;51.238;9.562;2024-01-16T11:12:39;5.70;79.80
3416;DHT22;1721;51.238;9.562;2024-01-16T11:15:07;5.70;79.50
3416;DHT22;1721;51.238;9.562;2024-01-16T11:17:34;5.80;79.40
3416;DHT22;1721;51.238;9.562;2024-01-16T11:20:04;5.90;78.80
3416;DHT22;1721;51.238;9.562;2024-01-16T11:22:40;5.90;78.90
3416;DHT22;1721;51.238;9.562;2024-01-16T11:25:16;6.10;80.00
3416;DHT22;1721;51.238;9.562;2024-01-16T11:27:43;6.30;77.60
3416;DHT22;1721;51.238;9.562;2024-01-16T11:30:10;6.30;77.50
3416;DHT22;1721;51.238;9.562;2024-01-16T11:32:41;6.40;77.10
3416;DHT22;1721;51.238;9.562;2024-01-16T11:35:10;6.40;76.70
3416;DHT22;1721;51.238;9.562;2024-01-16T11:37:39;6.30;77.50
3416;DHT22;1721;51.238;9.562;2024-01-16T11:42:47;6.00;78.90
3416;DHT22;1721;51.238;9.562;2024-01-16T11:48:23;5.70;78.40
3416;DHT22;1721;51.238;9.562;2024-01-16T11:50:49;5.60;79.60
3416;DHT22;1721;51.238;9.562;2024-01-16T11:53:38;5.30;80.00
3416;DHT22;1721;51.238;9.562;2024-01-16T11:59:14;5.50;81.10
3416;DHT22;1721;51.238;9.562;2024-01-16T12:01:45;5.50;79.60
3416;DHT22;1721;51.238;9.562;2024-01-16T12:04:11;5.50;79.70
3416;DHT22;1721;51.238;9.562;2024-01-16T12:06:40;5.40;79.40
3416;DHT22;1721;51.238;9.562;2024-01-16T12:09:12;5.30;79.80
3416;DHT22;1721;51.238;9.562;2024-01-16T12:11:39;5.30;79.30
3416;DHT22;1721;51.238;9.562;2024-01-16T12:14:05;5.20;80.10
3416;DHT22;1721;51.238;9.562;2024-01-16T12:16:30;5.40;80.20
3416;DHT22;1721;51.238;9.562;2024-01-16T12:19:09;5.50;79.30
3416;DHT22;1721;51.238;9.562;2024-01-16T12:21:45;5.60;79.10
3416;DHT22;1721;51.238;9.562;2024-01-16T12:24:11;5.60;78.10
3416;DHT22;1721;51.238;9.562;2024-01-16T12:26:37;5.60;77.80
3416;DHT22;1721;51.238;9.562;2024-01-16T12:29:04;5.70;77.60
3416;DHT22;1721;51.238;9.562;2024-01-16T12:31:30;5.70;77.70
3416;DHT22;1721;51.238;9.562;2024-01-16T12:34:06;5.80;77.50
3416;DHT22;1721;51.238;9.562;2024-01-16T12:36:33;5.90;77.40
3416;DHT22;1721;51.238;9.562;2024-01-16T12:38:59;5.80;76.70
3416;DHT22;1721;51.238;9.562;2024-01-16T12:41:26;5.90;77.30
3416;DHT22;1721;51.238;9.562;2024-01-16T12:43:53;5.90;77.00
3416;DHT22;1721;51.238;9.562;2024-01-16T12:46:18;5.90;76.70
3416;DHT22;1721;51.238;9.562;2024-01-16T12:48:45;6.00;76.60
3416;DHT22;1721;51.238;9.562;2024-01-16T12:51:16;6.10;75.80
3416;DHT22;1721;51.238;9.562;2024-01-16T12:53:45;6.20;76.20
3416;DHT22;1721;51.238;9.562;2024-01-16T12:56:10;6.20;76.00
3416;DHT22;1721;51.238;9.562;2024-01-16T12:58:37;6.00;76.40
3416;DHT22;1721;51.238;9.562;2024-01-16T13:01:29;5.90;75.80
3416;DHT22;1721;51.238;9.562;2024-01-16T13:03:56;5.70;76.10
3416;DHT22;1721;51.238;9.562;2024-01-16T13:06:22;5.60;75.90
3416;DHT22;1721;51.238;9.562;2024-01-16T13:09:03;5.60;76.10
3416;DHT22;1721;51.238;9.562;2024-01-16T13:11:29;5.70;75.90
3416;DHT22;1721;51.238;9.562;2024-01-16T13:14:01;5.60;75.80
3416;DHT22;1721;51.238;9.562;2024-01-16T13:16:29;5.60;75.60
3416;DHT22;1721;51.238;9.562;2024-01-16T13:19:00;5.60;75.20
3416;DHT22;1721;51.238;9.562;2024-01-16T13:21:27;5.70;75.30
3416;DHT22;1721;51.238;9.562;2024-01-16T13:23:52;5.70;75.10
3416;DHT22;1721;51.238;9.562;2024-01-16T13:26:18;5.60;75.30
3416;DHT22;1721;51.238;9.562;2024-01-16T13:28:43;5.50;74.90
3416;DHT22;1721;51.238;9.562;2024-01-16T13:31:09;5.20;75.30
3416;DHT22;1721;51.238;9.562;2024-01-16T13:33:34;5.10;75.80
3416;DHT22;1721;51.238;9.562;2024-01-16T13:36:00;5.00;75.00
3416;DHT22;1721;51.238;9.562;2024-01-16T13:38:25;4.80;76.80
3416;DHT22;1721;51.238;9.562;2024-01-16T13:40:51;4.80;77.30
3416;DHT22;1721;51.238;9.562;2024-01-16T13:43:17;4.60;76.00
3416;DHT22;1721;51.238;9.562;2024-01-16T13:45:42;4.50;76.20
3416;DHT22;1721;51.238;9.562;2024-01-16T13:48:09;4.50;76.70
3416;DHT22;1721;51.238;9.562;2024-01-16T13:50:35;4.60;77.00
3416;DHT22;1721;51.238;9.562;2024-01-16T13:53:01;4.60;76.70
3416;DHT22;1721;51.238;9.562;2024-01-16T13:55:29;4.40;75.90
3416;DHT22;1721;51.238;9.562;2024-01-16T13:57:57;4.40;76.10
3416;DHT22;1721;51.238;9.562;2024-01-16T14:00:23;4.40;76.60
3416;DHT22;1721;51.238;9.562;2024-01-16T14:02:49;4.40;75.80
3416;DHT22;1721;51.238;9.562;2024-01-16T14:05:16;4.50;75.20
3416;DHT22;1721;51.238;9.562;2024-01-16T14:07:48;4.50;74.30
3416;DHT22;1721;51.238;9.562;2024-01-16T14:10:16;4.30;74.60
3416;DHT22;1721;51.238;9.562;2024-01-16T14:12:43;4.40;74.80
3416;DHT22;1721;51.238;9.562;2024-01-16T14:15:17;4.40;74.70
3416;DHT22;1721;51.238;9.562;2024-01-16T14:18:03;4.40;74.60
3416;DHT22;1721;51.238;9.562;2024-01-16T14:20:28;4.40;74.10
3416;DHT22;1721;51.238;9.562;2024-01-16T14:22:54;4.20;73.90
3416;DHT22;1721;51.238;9.562;2024-01-16T14:25:20;4.00;74.30
3416;DHT22;1721;51.238;9.562;2024-01-16T14:27:55;3.90;74.30
3416;DHT22;1721;51.238;9.562;2024-01-16T14:30:21;3.60;74.50
3416;DHT22;1721;51.238;9.562;2024-01-16T14:32:47;3.50;76.60
3416;DHT22;1721;51.238;9.562;2024-01-16T14:35:14;3.60;75.70
3416;DHT22;1721;51.238;9.562;2024-01-16T14:37:42;3.80;76.70
3416;DHT22;1721;51.238;9.562;2024-01-16T14:40:08;3.90;75.80
3416;DHT22;1721;51.238;9.562;2024-01-16T14:42:38;3.80;75.40
3416;DHT22;1721;51.238;9.562;2024-01-16T14:45:04;3.90;76.00
3416;DHT22;1721;51.238;9.562;2024-01-16T14:47:31;3.80;76.10
3416;DHT22;1721;51.238;9.562;2024-01-16T14:49:56;3.80;77.70
3416;DHT22;1721;51.238;9.562;2024-01-16T14:52:23;3.80;77.00
3416;DHT22;1721;51.238;9.562;2024-01-16T14:54:48;3.80;77.30
3416;DHT22;1721;51.238;9.562;2024-01-16T14:57:15;4.00;77.60
3416;DHT22;1721;51.238;9.562;2024-01-16T14:59:41;4.00;76.90
3416;DHT22;1721;51.238;9.562;2024-01-16T15:02:07;3.90;77.30
3416;DHT22;1721;51.238;9.562;2024-01-16T15:04:41;3.80;77.70
3416;DHT22;1721;51.238;9.562;2024-01-16T15:07:08;3.90;77.40
3416;DHT22;1721;51.238;9.562;2024-01-16T15:09:35;3.70;76.50
3416;DHT22;1721;51.238;9.562;2024-01-16T15:12:04;3.70;77.30
3416;DHT22;1721;51.238;9.562;2024-01-16T15:14:29;3.50;76.70
3416;DHT22;1721;51.238;9.562;2024-01-16T15:16:55;3.50;77.30
3416;DHT22;1721;51.238;9.562;2024-01-16T15:19:21;3.40;76.80
3416;DHT22;1721;51.238;9.562;2024-01-16T15:21:46;3.40;76.90
3416;DHT22;1721;51.238;9.562;2024-01-16T15:24:13;3.30;77.20
3416;DHT22;1721;51.238;9.562;2024-01-16T15:26:45;3.10;77.50
3416;DHT22;1721;51.238;9.562;2024-01-16T15:29:10;3.10;77.30
3416;DHT22;1721;51.238;9.562;2024-01-16T15:31:37;3.10;77.60
3416;DHT22;1721;51.238;9.562;2024-01-16T15:34:03;3.10;77.10
3416;DHT22;1721;51.238;9.562;2024-01-16T15:36:28;3.10;76.40
3416;DHT22;1721;51.238;9.562;2024-01-16T15:38:54;3.00;76.80
3416;DHT22;1721;51.238;9.562;2024-01-16T15:41:20;3.10;77.00
3416;DHT22;1721;51.238;9.562;2024-01-16T15:43:45;3.20;76.70
3416;DHT22;1721;51.238;9.562;2024-01-16T15:46:11;3.30;76.70
3416;DHT22;1721;51.238;9.562;2024-01-16T15:48:37;3.30;76.40
3416;DHT22;1721;51.238;9.562;2024-01-16T15:51:03;3.30;76.10
3416;DHT22;1721;51.238;9.562;2024-01-16T15:53:33;3.20;75.90
3416;DHT22;1721;51.238;9.562;2024-01-16T15:55:58;3.00;75.80
3416;DHT22;1721;51.238;9.562;2024-01-16T15:58:24;3.00;76.60
3416;DHT22;1721;51.238;9.562;2024-01-16T16:00:50;3.00;77.00
3416;DHT22;1721;51.238;9.562;2024-01-16T16:03:15;2.80;76.40
3416;DHT22;1721;51.238;9.562;2024-01-16T16:05:42;2.50;76.00
3416;DHT22;1721;51.238;9.562;2024-01-16T16:08:07;2.50;76.40
3416;DHT22;1721;51.238;9.562;2024-01-16T16:10:33;2.40;75.80
3416;DHT22;1721;51.238;9.562;2024-01-16T16:13:01;2.40;76.00
3416;DHT22;1721;51.238;9.562;2024-01-16T16:15:26;2.30;76.10
3416;DHT22;1721;51.238;9.562;2024-01-16T16:17:54;2.20;75.50
3416;DHT22;1721;51.238;9.562;2024-01-16T16:20:20;2.20;75.50
3416;DHT22;1721;51.238;9.562;2024-01-16T16:22:49;2.20;75.90